Delta Virtual Airport Information Service

Seattle Tacoma International Airport

ICAO: KSEA Country: United States
Latitude: 47.4482 Longitude: -122.311
Latest Arrival : ASA1371 (KDEN-KSEA) Latest Departure : ASA396 (KSEA-KGEG)


WX CaptureLIVE
Data provided by noaa.gov | Fetched at 08:33:57

METAR : KSEA 041253Z 00000KT 10SM FEW080 FEW250 17/14 A3012 RMK AO2 SLP201 T01670139

TAF : KSEA 041325Z 0413/0518 34003KT P6SM FEW080 FM041700 01006KT P6SM SKC FM041900 34008KT P6SM SKC FM051200 22005KT P6SM SCT015


Runway Data for KSEA
Data provided by openaviationdata.com

Runway ID Mag Var Hdg Length Elevation Surface ILS Freq ILS Id ILS Slope
16L 19 161° 11894 ft 362 ft Asphalt 110.3 ISNQ 3
16R 19 161° 9421 ft 362 ft Concrete 111.7 ISZI 3
34L 19 341° 9421 ft 362 ft Concrete 111.7 ITUC 3
34R 19 341° 11894 ft 362 ft Asphalt 110.3 ISEA 2

Seattle Tacoma International Airport, United States
Use only for reference purposes



Not for navigational purposes.